Time;durP1;ratioP1;P1;durP2;ratioP2;P2;SDS_P1;SDS_P2;PMS_P1;PMS_P2;Temp;Humidity;BMP_temperature;BMP_pressure;BME280_temperature;BME280_humidity;BME280_pressure;Samples;Min_cycle;Max_cycle;Signal;HPM_P1;HPM_P2
2023/12/09 00:02:03;;;;;;;0.00;0.00;;;10.60;79.10;;;;;;5061964;28;20273;-27
2023/12/09 00:04:30;;;;;;;0.00;0.00;;;10.60;79.10;;;;;;5066285;28;20577;-27
2023/12/09 00:07:02;;;;;;;0.00;0.00;;;10.60;79.10;;;;;;5077872;28;20232;-27
2023/12/09 00:09:32;;;;;;;0.00;0.00;;;10.60;79.20;;;;;;5078792;28;20682;-27
2023/12/09 00:11:59;;;;;;;0.00;0.00;;;10.60;79.20;;;;;;5077634;28;20781;-26
2023/12/09 00:14:29;;;;;;;0.00;0.00;;;10.60;79.10;;;;;;5078583;28;20227;-27
2023/12/09 00:16:56;;;;;;;0.00;0.00;;;10.50;79.00;;;;;;5046462;28;20200;-26
2023/12/09 00:19:23;;;;;;;0.00;0.00;;;10.50;79.00;;;;;;5078455;28;20436;-25
2023/12/09 00:21:53;;;;;;;0.00;0.00;;;10.50;79.00;;;;;;5044942;28;20545;-26
2023/12/09 00:24:20;;;;;;;0.00;0.00;;;10.50;79.00;;;;;;5046315;28;20204;-26
2023/12/09 00:26:49;;;;;;;0.00;0.00;;;10.50;79.00;;;;;;5077679;28;20196;-26
2023/12/09 00:29:19;;;;;;;0.00;0.00;;;10.50;79.10;;;;;;5077718;28;20298;-26
2023/12/09 00:31:48;;;;;;;0.00;0.00;;;10.50;79.30;;;;;;5077971;28;20199;-26
2023/12/09 00:34:18;;;;;;;0.00;0.00;;;10.50;79.10;;;;;;5078130;28;20213;-26
2023/12/09 00:36:48;;;;;;;0.00;0.00;;;10.50;79.10;;;;;;5046182;28;20208;-26
2023/12/09 00:39:15;;;;;;;0.00;0.00;;;10.50;79.10;;;;;;5077934;28;20204;-26
2023/12/09 00:41:42;;;;;;;0.00;0.00;;;10.50;79.10;;;;;;5077200;28;20212;-26
2023/12/09 00:44:12;;;;;;;0.00;0.00;;;10.50;79.10;;;;;;5078415;28;20204;-26
2023/12/09 00:46:41;;;;;;;0.00;0.00;;;10.50;79.10;;;;;;5078067;28;20200;-26
2023/12/09 00:49:11;;;;;;;0.00;0.00;;;10.50;79.10;;;;;;5078349;28;20679;-26
2023/12/09 00:51:38;;;;;;;0.00;0.00;;;10.50;79.10;;;;;;5046063;28;20710;-26
2023/12/09 00:54:08;;;;;;;0.00;0.00;;;10.50;79.20;;;;;;5078028;28;20196;-26
2023/12/09 00:56:35;;;;;;;0.00;0.00;;;10.40;79.10;;;;;;5045290;28;20204;-26
2023/12/09 00:59:05;;;;;;;0.00;0.00;;;10.40;79.10;;;;;;5046217;28;20208;-26
2023/12/09 01:01:35;;;;;;;0.00;0.00;;;10.40;79.00;;;;;;5077502;28;20204;-26
2023/12/09 01:04:05;;;;;;;0.00;0.00;;;10.40;79.00;;;;;;5077453;28;20666;-26
2023/12/09 01:06:33;;;;;;;0.00;0.00;;;10.40;79.10;;;;;;5045517;28;20260;-26
2023/12/09 01:09:03;;;;;;;0.00;0.00;;;10.40;79.10;;;;;;5076904;28;20196;-26
2023/12/09 01:11:30;;;;;;;0.00;0.00;;;10.40;79.10;;;;;;5060338;28;20208;-26
2023/12/09 01:14:00;;;;;;;0.00;0.00;;;10.40;79.10;;;;;;5077449;28;20216;-27
2023/12/09 01:16:32;;;;;;;0.00;0.00;;;10.40;79.10;;;;;;5076279;28;20204;-26
2023/12/09 01:19:02;;;;;;;0.00;0.00;;;10.40;79.10;;;;;;5045748;28;20621;-26
2023/12/09 01:21:32;;;;;;;0.00;0.00;;;10.40;79.00;;;;;;5076835;28;20201;-26
2023/12/09 01:23:59;;;;;;;0.00;0.00;;;10.40;79.10;;;;;;5045307;28;20262;-26
2023/12/09 01:26:28;;;;;;;0.00;0.00;;;10.40;79.10;;;;;;5044556;28;20230;-26
2023/12/09 01:28:56;;;;;;;0.00;0.00;;;10.40;79.10;;;;;;5044873;28;20670;-26
2023/12/09 01:31:25;;;;;;;0.00;0.00;;;10.40;79.10;;;;;;5045485;28;20224;-26
2023/12/09 01:33:53;;;;;;;0.00;0.00;;;10.40;79.10;;;;;;5077060;28;20280;-26
2023/12/09 01:36:22;;;;;;;0.00;0.00;;;10.40;79.20;;;;;;5043780;28;20250;-26
2023/12/09 01:38:52;;;;;;;0.00;0.00;;;10.40;79.10;;;;;;5045451;28;20196;-26
2023/12/09 01:41:19;;;;;;;0.00;0.00;;;10.40;79.10;;;;;;5044420;28;20315;-26
2023/12/09 01:43:55;;;;;;;0.00;0.00;;;10.30;79.00;;;;;;5045128;28;20228;-25
2023/12/09 01:46:22;;;;;;;0.00;0.00;;;10.30;79.00;;;;;;5043389;28;20219;-26
2023/12/09 01:48:55;;;;;;;0.00;0.00;;;10.30;79.00;;;;;;5045036;28;20231;-26
2023/12/09 01:51:24;;;;;;;0.00;0.00;;;10.30;79.00;;;;;;5044679;28;20185;-25
2023/12/09 01:53:53;;;;;;;0.00;0.00;;;10.30;79.10;;;;;;5059703;28;20717;-26
2023/12/09 01:56:25;;;;;;;0.00;0.00;;;10.30;79.00;;;;;;5044163;28;20208;-26
2023/12/09 01:58:58;;;;;;;0.00;0.00;;;10.30;79.10;;;;;;5052887;28;20235;-26
2023/12/09 02:01:26;;;;;;;0.00;0.00;;;10.30;79.00;;;;;;5063196;28;20602;-26
2023/12/09 02:03:54;;;;;;;0.00;0.00;;;10.30;79.00;;;;;;5059426;28;20574;-26
2023/12/09 02:06:21;;;;;;;0.00;0.00;;;10.30;79.00;;;;;;5052310;28;20640;-26
2023/12/09 02:08:48;;;;;;;0.00;0.00;;;10.30;79.00;;;;;;5064492;28;20294;-26
2023/12/09 02:11:37;;;;;;;0.00;0.00;;;10.30;79.00;;;;;;5063866;28;20199;-26
2023/12/09 02:14:10;;;;;;;0.00;0.00;;;10.30;79.10;;;;;;5064729;28;20319;-26
2023/12/09 02:16:53;;;;;;;0.00;0.00;;;10.30;79.00;;;;;;5049832;28;20199;-26
2023/12/09 02:19:21;;;;;;;0.00;0.00;;;10.20;79.00;;;;;;5064306;28;20208;-26
2023/12/09 02:22:05;;;;;;;0.00;0.00;;;10.20;79.00;;;;;;5062519;28;20206;-26
2023/12/09 02:24:33;;;;;;;0.00;0.00;;;10.20;79.10;;;;;;5064247;28;20218;-26
2023/12/09 02:27:19;;;;;;;0.00;0.00;;;10.20;79.00;;;;;;5061938;28;20634;-26
2023/12/09 02:30:15;;;;;;;0.00;0.00;;;10.20;79.00;;;;;;5064772;28;20199;-26
2023/12/09 02:32:49;;;;;;;0.00;0.00;;;10.20;79.00;;;;;;5063165;28;20626;-25
2023/12/09 02:35:19;;;;;;;0.00;0.00;;;10.10;79.10;;;;;;5063321;28;20556;-26
2023/12/09 02:37:49;;;;;;;0.00;0.00;;;10.10;79.00;;;;;;5064191;28;20222;-25
2023/12/09 02:40:18;;;;;;;0.00;0.00;;;10.10;79.00;;;;;;5064316;28;20710;-26
2023/12/09 02:42:49;;;;;;;0.00;0.00;;;10.10;79.00;;;;;;5063355;28;20219;-25
2023/12/09 02:45:22;;;;;;;0.00;0.00;;;10.10;78.90;;;;;;5064270;28;20254;-26
2023/12/09 02:47:49;;;;;;;0.00;0.00;;;10.10;78.90;;;;;;5064030;28;20680;-26
2023/12/09 02:50:17;;;;;;;0.00;0.00;;;10.10;79.00;;;;;;5064378;28;20222;-26
2023/12/09 02:52:44;;;;;;;0.00;0.00;;;10.10;79.00;;;;;;5062414;28;20260;-26
2023/12/09 02:55:14;;;;;;;0.00;0.00;;;10.10;79.00;;;;;;5062512;28;20200;-25
2023/12/09 02:57:41;;;;;;;0.00;0.00;;;10.10;79.10;;;;;;5063291;28;20204;-25
2023/12/09 03:00:09;;;;;;;0.00;0.00;;;10.10;79.10;;;;;;5064370;28;20243;-25
2023/12/09 03:02:37;;;;;;;0.00;0.00;;;10.10;79.10;;;;;;5062161;28;20280;-26
2023/12/09 03:05:04;;;;;;;0.00;0.00;;;10.10;79.10;;;;;;5045512;28;20692;-26
2023/12/09 03:07:32;;;;;;;0.00;0.00;;;10.10;79.10;;;;;;5062076;28;20705;-26
2023/12/09 03:10:03;;;;;;;0.00;0.00;;;10.10;79.10;;;;;;5062395;28;20202;-26
2023/12/09 03:12:33;;;;;;;0.00;0.00;;;10.10;79.00;;;;;;5063005;28;20207;-26
2023/12/09 03:15:05;;;;;;;0.00;0.00;;;10.00;79.00;;;;;;5063836;28;20261;-26
2023/12/09 03:17:38;;;;;;;0.00;0.00;;;10.00;78.90;;;;;;5063742;28;20265;-26
2023/12/09 03:20:10;;;;;;;0.00;0.00;;;10.00;78.90;;;;;;5062479;28;20192;-26
2023/12/09 03:22:40;;;;;;;0.00;0.00;;;10.00;79.00;;;;;;5063868;28;20288;-26
2023/12/09 03:25:10;;;;;;;0.00;0.00;;;10.00;79.00;;;;;;5063583;28;20208;-26
2023/12/09 03:27:39;;;;;;;0.00;0.00;;;10.00;79.00;;;;;;5061681;28;20199;-27
2023/12/09 03:30:09;;;;;;;0.00;0.00;;;10.00;79.00;;;;;;5063805;28;20196;-26
2023/12/09 03:32:41;;;;;;;0.00;0.00;;;10.00;79.00;;;;;;5064038;28;20222;-26
2023/12/09 03:35:09;;;;;;;0.00;0.00;;;10.00;79.00;;;;;;5062205;28;20306;-26
2023/12/09 03:37:41;;;;;;;0.00;0.00;;;10.00;79.00;;;;;;5063588;28;20230;-26
2023/12/09 03:40:10;;;;;;;0.00;0.00;;;10.00;79.00;;;;;;5061992;28;20192;-26
2023/12/09 03:42:39;;;;;;;0.00;0.00;;;10.00;79.00;;;;;;5061596;28;20208;-26
2023/12/09 03:45:07;;;;;;;0.00;0.00;;;10.00;79.00;;;;;;5064025;28;20215;-26
2023/12/09 03:47:34;;;;;;;0.00;0.00;;;10.00;79.00;;;;;;5063620;28;20191;-26
2023/12/09 03:50:02;;;;;;;0.00;0.00;;;9.90;78.90;;;;;;5064155;28;20210;-26
2023/12/09 03:52:31;;;;;;;0.00;0.00;;;10.00;79.00;;;;;;5047063;28;20560;-26
2023/12/09 03:55:01;;;;;;;0.00;0.00;;;9.90;78.90;;;;;;5048895;28;20638;-26
2023/12/09 03:57:31;;;;;;;0.00;0.00;;;9.90;78.90;;;;;;5066555;28;20253;-26
2023/12/09 03:59:58;;;;;;;0.00;0.00;;;9.90;78.90;;;;;;5065580;28;20199;-25
2023/12/09 04:02:31;;;;;;;0.00;0.00;;;9.90;78.90;;;;;;5065261;28;20642;-26
2023/12/09 04:05:03;;;;;;;0.00;0.00;;;9.90;79.00;;;;;;5065455;28;20207;-26
2023/12/09 04:07:33;;;;;;;0.00;0.00;;;9.90;79.00;;;;;;5065173;28;20187;-25
2023/12/09 04:10:00;;;;;;;0.00;0.00;;;9.90;79.00;;;;;;5065343;28;20219;-25
2023/12/09 04:12:30;;;;;;;0.00;0.00;;;9.90;79.10;;;;;;5066196;28;20263;-26
2023/12/09 04:15:01;;;;;;;0.00;0.00;;;9.90;79.10;;;;;;5065376;28;20214;-26
2023/12/09 04:17:28;;;;;;;0.00;0.00;;;9.90;79.20;;;;;;5066748;28;20582;-26
2023/12/09 04:19:58;;;;;;;0.00;0.00;;;9.90;79.20;;;;;;5065396;28;20312;-25
2023/12/09 04:22:25;;;;;;;0.00;0.00;;;9.90;79.20;;;;;;5065365;28;20195;-25
2023/12/09 04:24:58;;;;;;;0.00;0.00;;;10.00;79.30;;;;;;5066764;28;20231;-26
2023/12/09 04:27:25;;;;;;;0.00;0.00;;;10.00;79.20;;;;;;5065867;28;20196;-26
2023/12/09 04:29:55;;;;;;;0.00;0.00;;;10.00;79.30;;;;;;5066797;28;20733;-25
2023/12/09 04:32:22;;;;;;;0.00;0.00;;;10.00;79.20;;;;;;5064756;28;20286;-26
2023/12/09 04:34:49;;;;;;;0.00;0.00;;;10.00;79.20;;;;;;5066742;28;20702;-26
2023/12/09 04:37:16;;;;;;;0.00;0.00;;;10.00;79.30;;;;;;5048229;28;20226;-26
2023/12/09 04:39:48;;;;;;;0.00;0.00;;;10.00;79.20;;;;;;5066582;28;20273;-26
2023/12/09 04:42:16;;;;;;;0.00;0.00;;;10.00;79.30;;;;;;5065721;28;20200;-26
2023/12/09 04:44:43;;;;;;;0.00;0.00;;;10.00;79.20;;;;;;5066135;28;20227;-26
2023/12/09 04:47:13;;;;;;;0.00;0.00;;;10.10;79.30;;;;;;5064594;28;20260;-26
2023/12/09 04:49:40;;;;;;;0.00;0.00;;;10.10;79.30;;;;;;5066236;28;20234;-26
2023/12/09 04:52:08;;;;;;;0.00;0.00;;;10.10;79.30;;;;;;5064270;28;20199;-26
2023/12/09 04:54:35;;;;;;;0.00;0.00;;;10.10;79.30;;;;;;5066092;28;20214;-26
2023/12/09 04:57:05;;;;;;;0.00;0.00;;;10.10;79.30;;;;;;5063687;28;20208;-25
2023/12/09 04:59:35;;;;;;;0.00;0.00;;;10.10;79.30;;;;;;5065735;28;20203;-26
2023/12/09 05:02:04;;;;;;;0.00;0.00;;;10.10;79.20;;;;;;5064219;28;20208;-26
2023/12/09 05:04:36;;;;;;;0.00;0.00;;;10.10;79.20;;;;;;5046872;28;20232;-26
2023/12/09 05:07:04;;;;;;;0.00;0.00;;;10.20;79.30;;;;;;5065544;28;20239;-26
2023/12/09 05:09:33;;;;;;;0.00;0.00;;;10.20;79.30;;;;;;5065868;28;20253;-26
2023/12/09 05:12:01;;;;;;;0.00;0.00;;;10.20;79.40;;;;;;5063545;28;20655;-26
2023/12/09 05:14:31;;;;;;;0.00;0.00;;;10.20;79.40;;;;;;5065968;28;20221;-26
2023/12/09 05:17:00;;;;;;;0.00;0.00;;;10.20;79.40;;;;;;5064039;28;20208;-26
2023/12/09 05:19:28;;;;;;;0.00;0.00;;;10.20;79.40;;;;;;5065990;28;20207;-25
2023/12/09 05:21:57;;;;;;;0.00;0.00;;;10.20;79.40;;;;;;5065348;28;20222;-26
2023/12/09 05:24:29;;;;;;;0.00;0.00;;;10.30;79.50;;;;;;5065379;28;20270;-25
2023/12/09 05:26:57;;;;;;;0.00;0.00;;;10.30;79.50;;;;;;5064938;28;20265;-26
2023/12/09 05:29:24;;;;;;;0.00;0.00;;;10.30;79.40;;;;;;5065703;28;20730;-26
2023/12/09 05:31:52;;;;;;;0.00;0.00;;;10.30;79.40;;;;;;5065157;28;20203;-26
2023/12/09 05:34:19;;;;;;;0.00;0.00;;;10.30;79.40;;;;;;5063943;28;20662;-26
2023/12/09 05:36:48;;;;;;;0.00;0.00;;;10.30;79.40;;;;;;5059248;28;20204;-26
2023/12/09 05:39:20;;;;;;;0.00;0.00;;;10.40;79.50;;;;;;5046906;28;20240;-25
2023/12/09 05:41:48;;;;;;;0.00;0.00;;;10.40;79.50;;;;;;5051980;28;20200;-26
2023/12/09 05:44:15;;;;;;;0.00;0.00;;;10.40;79.50;;;;;;5053515;28;20212;-26
2023/12/09 05:46:42;;;;;;;0.00;0.00;;;10.40;79.50;;;;;;5061273;28;20191;-26
2023/12/09 05:49:12;;;;;;;0.00;0.00;;;10.40;79.50;;;;;;5045282;28;20593;-26
2023/12/09 05:51:44;;;;;;;0.00;0.00;;;10.40;79.50;;;;;;5044963;28;20199;-26
2023/12/09 05:54:11;;;;;;;0.00;0.00;;;10.40;79.50;;;;;;5063422;28;20207;-26
2023/12/09 05:56:47;;;;;;;0.00;0.00;;;10.50;79.50;;;;;;5062118;28;20219;-26
2023/12/09 05:59:19;;;;;;;0.00;0.00;;;10.50;79.60;;;;;;5049252;28;20204;-26
2023/12/09 06:01:46;;;;;;;0.00;0.00;;;10.50;79.60;;;;;;5054702;28;20204;-26
2023/12/09 06:04:13;;;;;;;0.00;0.00;;;10.50;79.60;;;;;;5055493;28;20257;-26
2023/12/09 06:06:45;;;;;;;0.00;0.00;;;10.50;79.60;;;;;;5052044;28;20526;-26
2023/12/09 06:09:13;;;;;;;0.00;0.00;;;10.50;79.50;;;;;;5054491;28;20290;-26
2023/12/09 06:11:42;;;;;;;0.00;0.00;;;10.60;79.50;;;;;;5049115;28;20663;-26
2023/12/09 06:14:12;;;;;;;0.00;0.00;;;10.60;79.50;;;;;;5048200;28;20200;-26
2023/12/09 06:16:41;;;;;;;0.00;0.00;;;10.60;79.50;;;;;;5036788;28;20638;-26
2023/12/09 06:19:09;;;;;;;0.00;0.00;;;10.60;79.60;;;;;;5064268;28;20211;-26
2023/12/09 06:21:38;;;;;;;0.00;0.00;;;10.60;79.50;;;;;;5061470;28;20634;-26
2023/12/09 06:24:06;;;;;;;0.00;0.00;;;10.60;79.50;;;;;;5061277;28;20926;-26
2023/12/09 06:26:35;;;;;;;0.00;0.00;;;10.60;79.50;;;;;;5055009;28;20200;-26
2023/12/09 06:29:05;;;;;;;0.00;0.00;;;10.60;79.50;;;;;;5064744;28;20250;-26
2023/12/09 06:31:34;;;;;;;0.00;0.00;;;10.60;79.50;;;;;;5056120;28;20204;-26
2023/12/09 06:34:02;;;;;;;0.00;0.00;;;10.70;79.60;;;;;;5057406;28;20204;-26
2023/12/09 06:36:31;;;;;;;0.00;0.00;;;10.70;79.60;;;;;;5061152;28;20199;-26
2023/12/09 06:38:59;;;;;;;0.00;0.00;;;10.70;79.50;;;;;;5064616;28;20744;-26
2023/12/09 06:41:29;;;;;;;0.00;0.00;;;10.70;79.50;;;;;;5061323;28;20329;-26
2023/12/09 06:43:58;;;;;;;0.00;0.00;;;10.70;79.40;;;;;;5061939;28;20262;-26
2023/12/09 06:46:26;;;;;;;0.00;0.00;;;10.70;79.50;;;;;;5053569;28;20191;-26
2023/12/09 06:48:53;;;;;;;0.00;0.00;;;10.70;79.40;;;;;;5059375;28;20207;-26
2023/12/09 06:51:20;;;;;;;0.00;0.00;;;10.70;79.40;;;;;;5061536;28;20222;-27
2023/12/09 06:53:48;;;;;;;0.00;0.00;;;10.60;79.30;;;;;;5063309;28;20556;-27
2023/12/09 06:56:21;;;;;;;0.00;0.00;;;10.70;79.40;;;;;;5062056;28;20609;-26
2023/12/09 06:58:53;;;;;;;0.00;0.00;;;10.70;79.40;;;;;;5059588;28;20563;-26
2023/12/09 07:01:24;;;;;;;0.00;0.00;;;10.70;79.40;;;;;;5046630;28;20744;-25
2023/12/09 07:03:52;;;;;;;0.00;0.00;;;10.70;79.40;;;;;;5048675;28;20295;-26
2023/12/09 07:06:26;;;;;;;0.00;0.00;;;10.70;79.40;;;;;;5044918;28;20224;-25
2023/12/09 07:08:59;;;;;;;0.00;0.00;;;10.70;79.40;;;;;;5045111;28;20237;-25
2023/12/09 07:11:26;;;;;;;0.00;0.00;;;10.70;79.40;;;;;;5051320;28;20204;-25
2023/12/09 07:13:54;;;;;;;0.00;0.00;;;10.70;79.30;;;;;;5040621;28;20303;-24
2023/12/09 07:16:23;;;;;;;0.00;0.00;;;10.70;79.30;;;;;;5051870;28;20226;-28
2023/12/09 07:18:52;;;;;;;0.00;0.00;;;10.70;79.40;;;;;;5060153;28;20793;-27
2023/12/09 07:21:22;;;;;;;0.00;0.00;;;10.70;79.40;;;;;;5054226;28;20318;-27
2023/12/09 07:23:51;;;;;;;0.00;0.00;;;10.60;79.40;;;;;;5061605;28;20459;-28
2023/12/09 07:26:19;;;;;;;0.00;0.00;;;10.70;79.40;;;;;;5057547;28;20257;-28
2023/12/09 07:28:46;;;;;;;0.00;0.00;;;10.70;79.40;;;;;;5077850;28;20510;-28
2023/12/09 07:31:17;;;;;;;0.00;0.00;;;10.70;79.50;;;;;;5052964;28;20200;-28
2023/12/09 07:33:46;;;;;;;0.00;0.00;;;10.70;79.40;;;;;;5062569;28;20338;-27
2023/12/09 07:36:13;;;;;;;0.00;0.00;;;10.70;79.50;;;;;;5048156;28;20212;-27
2023/12/09 07:38:43;;;;;;;0.00;0.00;;;10.70;79.50;;;;;;5064781;28;20207;-27
2023/12/09 07:41:10;;;;;;;0.00;0.00;;;10.70;79.50;;;;;;5053204;28;20327;-27
2023/12/09 07:43:40;;;;;;;0.00;0.00;;;10.70;79.40;;;;;;5076217;28;20228;-29
2023/12/09 07:46:10;;;;;;;0.00;0.00;;;10.70;79.40;;;;;;5046387;28;20204;-27
2023/12/09 07:48:40;;;;;;;0.00;0.00;;;10.70;79.40;;;;;;5049687;28;21012;-27
2023/12/09 07:51:11;;;;;;;0.00;0.00;;;10.80;79.50;;;;;;5052245;28;20204;-27
2023/12/09 07:53:41;;;;;;;0.00;0.00;;;10.80;79.60;;;;;;5053287;28;20212;-27
2023/12/09 07:56:12;;;;;;;0.00;0.00;;;10.80;79.60;;;;;;5065490;28;20210;-27
2023/12/09 07:58:39;;;;;;;0.00;0.00;;;10.80;79.50;;;;;;5058256;28;20584;-26
2023/12/09 08:01:07;;;;;;;0.00;0.00;;;10.80;80.30;;;;;;5060808;28;20199;-26
2023/12/09 08:03:40;;;;;;;0.00;0.00;;;10.80;79.50;;;;;;5066512;28;20196;-26
2023/12/09 08:06:12;;;;;;;0.00;0.00;;;10.80;79.50;;;;;;5057229;28;20231;-26
2023/12/09 08:08:39;;;;;;;0.00;0.00;;;10.80;79.50;;;;;;5057451;28;20564;-26
2023/12/09 08:11:06;;;;;;;0.00;0.00;;;10.80;79.50;;;;;;5058223;28;20783;-26
2023/12/09 08:13:34;;;;;;;0.00;0.00;;;10.80;79.50;;;;;;5063897;28;20208;-26
2023/12/09 08:16:08;;;;;;;0.00;0.00;;;10.80;79.50;;;;;;5054843;28;20860;-26
2023/12/09 08:18:36;;;;;;;0.00;0.00;;;10.80;79.50;;;;;;5071386;28;20293;-26
2023/12/09 08:21:03;;;;;;;0.00;0.00;;;10.90;79.60;;;;;;5050501;28;20223;-26
2023/12/09 08:23:33;;;;;;;0.00;0.00;;;10.90;79.60;;;;;;5055604;28;20211;-26
2023/12/09 08:26:00;;;;;;;0.00;0.00;;;10.90;79.60;;;;;;5062489;28;20235;-26
2023/12/09 08:28:29;;;;;;;0.00;0.00;;;10.90;79.60;;;;;;5062822;28;20192;-26
2023/12/09 08:31:04;;;;;;;0.00;0.00;;;10.90;79.60;;;;;;5056509;28;20211;-25
2023/12/09 08:33:31;;;;;;;0.00;0.00;;;10.90;79.60;;;;;;5066799;28;20669;-26
2023/12/09 08:35:59;;;;;;;0.00;0.00;;;11.00;79.70;;;;;;5056696;28;20651;-26
2023/12/09 08:38:26;;;;;;;0.00;0.00;;;11.00;79.60;;;;;;5046352;28;20228;-26
2023/12/09 08:40:53;;;;;;;0.00;0.00;;;11.00;79.60;;;;;;5052549;28;20203;-26
2023/12/09 08:43:23;;;;;;;0.00;0.00;;;11.00;79.70;;;;;;5046357;28;20200;-26
2023/12/09 08:45:53;;;;;;;0.00;0.00;;;11.00;79.70;;;;;;5065798;28;20228;-26
2023/12/09 08:48:26;;;;;;;0.00;0.00;;;11.00;79.70;;;;;;5066809;28;20196;-25
2023/12/09 08:50:58;;;;;;;0.00;0.00;;;11.10;79.70;;;;;;5053833;28;20627;-25
2023/12/09 08:53:32;;;;;;;0.00;0.00;;;11.10;79.70;;;;;;5064509;28;20215;-25
2023/12/09 08:55:59;;;;;;;0.00;0.00;;;11.10;79.80;;;;;;5063558;28;20207;-25
2023/12/09 08:58:29;;;;;;;0.00;0.00;;;11.10;79.70;;;;;;5046529;28;20294;-25
2023/12/09 09:00:58;;;;;;;0.00;0.00;;;11.10;79.70;;;;;;5060225;28;20251;-25
2023/12/09 09:03:29;;;;;;;0.00;0.00;;;11.20;79.70;;;;;;5046110;28;20234;-25
2023/12/09 09:05:57;;;;;;;0.00;0.00;;;11.20;79.70;;;;;;5045736;28;20227;-25
2023/12/09 09:08:26;;;;;;;0.00;0.00;;;11.20;79.70;;;;;;5058105;28;20196;-25
2023/12/09 09:10:56;;;;;;;0.00;0.00;;;11.20;79.70;;;;;;5046782;28;20544;-25
2023/12/09 09:13:23;;;;;;;0.00;0.00;;;11.20;79.70;;;;;;5056318;28;20291;-25
2023/12/09 09:15:52;;;;;;;0.00;0.00;;;11.20;79.70;;;;;;5055874;28;20207;-25
2023/12/09 09:18:21;;;;;;;0.00;0.00;;;11.20;79.70;;;;;;5051970;28;20618;-25
2023/12/09 09:20:50;;;;;;;0.00;0.00;;;11.20;79.70;;;;;;5061608;28;20227;-25
2023/12/09 09:23:20;;;;;;;0.00;0.00;;;11.20;79.70;;;;;;5063853;28;20191;-25
2023/12/09 09:25:47;;;;;;;0.00;0.00;;;11.20;79.70;;;;;;5057971;28;20246;-25
2023/12/09 09:28:19;;;;;;;0.00;0.00;;;11.30;79.70;;;;;;5060409;28;20204;-25
2023/12/09 09:30:46;;;;;;;0.00;0.00;;;11.30;79.70;;;;;;5056164;28;20206;-25
2023/12/09 09:33:14;;;;;;;0.00;0.00;;;11.30;79.70;;;;;;5068702;28;20202;-25
2023/12/09 09:35:42;;;;;;;0.00;0.00;;;11.30;79.80;;;;;;5067018;28;20207;-26
2023/12/09 09:38:09;;;;;;;0.00;0.00;;;11.30;79.80;;;;;;5060592;28;20717;-25
2023/12/09 09:40:41;;;;;;;0.00;0.00;;;11.40;79.90;;;;;;5056422;28;20219;-25
2023/12/09 09:43:12;;;;;;;0.00;0.00;;;11.40;79.80;;;;;;5048673;28;20311;-25
2023/12/09 09:45:46;;;;;;;0.00;0.00;;;11.40;79.80;;;;;;5051128;28;20227;-25
2023/12/09 09:48:23;;;;;;;0.00;0.00;;;11.40;79.80;;;;;;5048752;28;20204;-26
2023/12/09 09:50:59;;;;;;;0.00;0.00;;;11.40;79.80;;;;;;5052221;28;20187;-26
2023/12/09 09:53:36;;;;;;;0.00;0.00;;;11.50;79.90;;;;;;5068482;28;20211;-26
2023/12/09 09:56:05;;;;;;;0.00;0.00;;;11.50;79.80;;;;;;5067061;28;20196;-28
2023/12/09 09:58:33;;;;;;;0.00;0.00;;;11.50;79.90;;;;;;5054426;28;20208;-26
2023/12/09 10:01:09;;;;;;;0.00;0.00;;;11.50;80.00;;;;;;5054583;28;20196;-26
2023/12/09 10:03:37;;;;;;;0.00;0.00;;;11.50;79.80;;;;;;5066189;28;20219;-27
2023/12/09 10:06:06;;;;;;;0.00;0.00;;;11.50;79.80;;;;;;5054226;28;20880;-26
2023/12/09 10:08:34;;;;;;;0.00;0.00;;;11.60;79.80;;;;;;5055703;28;20783;-27
2023/12/09 10:11:06;;;;;;;0.00;0.00;;;11.60;79.80;;;;;;5049568;28;20203;-26
2023/12/09 10:13:33;;;;;;;0.00;0.00;;;11.60;79.80;;;;;;5060429;28;20204;-26
2023/12/09 10:16:03;;;;;;;0.00;0.00;;;11.60;79.70;;;;;;5055933;28;20542;-26
2023/12/09 10:18:32;;;;;;;0.00;0.00;;;11.60;79.80;;;;;;5068133;28;20215;-27
2023/12/09 10:20:59;;;;;;;0.00;0.00;;;11.60;79.70;;;;;;5060623;28;20457;-26
2023/12/09 10:23:29;;;;;;;0.00;0.00;;;11.60;79.60;;;;;;5059907;28;20650;-26
2023/12/09 10:26:02;;;;;;;0.00;0.00;;;11.60;79.70;;;;;;5060484;28;20230;-26
2023/12/09 10:28:31;;;;;;;0.00;0.00;;;11.60;79.60;;;;;;5064888;28;20199;-26
2023/12/09 10:31:00;;;;;;;0.00;0.00;;;11.60;79.60;;;;;;5065132;28;20681;-26
2023/12/09 10:33:33;;;;;;;0.00;0.00;;;11.60;79.70;;;;;;5053915;28;21022;-29
2023/12/09 10:36:02;;;;;;;0.00;0.00;;;11.60;79.70;;;;;;5066095;28;20295;-26
2023/12/09 10:38:40;;;;;;;0.00;0.00;;;11.60;79.70;;;;;;5067337;28;20230;-27
2023/12/09 10:41:10;;;;;;;0.00;0.00;;;11.60;79.70;;;;;;5056984;28;20191;-27
2023/12/09 10:43:37;;;;;;;0.00;0.00;;;11.60;79.60;;;;;;5055844;28;20694;-26
2023/12/09 10:46:07;;;;;;;0.00;0.00;;;11.60;79.60;;;;;;5058143;28;20238;-26
2023/12/09 10:48:34;;;;;;;0.00;0.00;;;11.60;79.60;;;;;;5052330;28;20223;-27
2023/12/09 10:51:03;;;;;;;0.00;0.00;;;11.60;79.60;;;;;;5048542;28;20250;-26
2023/12/09 10:53:32;;;;;;;0.00;0.00;;;11.60;79.60;;;;;;5054031;28;20286;-26
2023/12/09 10:56:02;;;;;;;0.00;0.00;;;11.60;79.50;;;;;;5047982;28;20207;-26
2023/12/09 10:58:33;;;;;;;0.00;0.00;;;11.60;79.60;;;;;;5056973;28;20208;-26
2023/12/09 11:01:07;;;;;;;0.00;0.00;;;11.60;79.60;;;;;;5053039;28;20203;-26
2023/12/09 11:03:38;;;;;;;0.00;0.00;;;11.60;79.60;;;;;;5053665;28;20240;-26
2023/12/09 11:06:08;;;;;;;0.00;0.00;;;11.60;79.60;;;;;;5053512;28;20645;-26
2023/12/09 11:08:41;;;;;;;0.00;0.00;;;11.60;79.60;;;;;;5066156;28;20214;-26
2023/12/09 11:11:11;;;;;;;0.00;0.00;;;11.50;79.50;;;;;;5067396;28;20196;-26
2023/12/09 11:13:47;;;;;;;0.00;0.00;;;11.50;79.70;;;;;;5057882;28;20300;-26
2023/12/09 11:16:19;;;;;;;0.00;0.00;;;11.50;79.60;;;;;;5057202;28;20206;-26
2023/12/09 11:18:57;;;;;;;0.00;0.00;;;11.60;79.70;;;;;;5050559;28;20211;-26
2023/12/09 11:21:31;;;;;;;0.00;0.00;;;11.50;79.60;;;;;;5061720;28;20253;-26
2023/12/09 11:24:01;;;;;;;0.00;0.00;;;11.50;79.60;;;;;;5054186;28;20621;-26
2023/12/09 11:26:33;;;;;;;0.00;0.00;;;11.50;79.60;;;;;;5067654;28;20218;-27
2023/12/09 11:29:06;;;;;;;0.00;0.00;;;11.50;79.60;;;;;;5051888;28;20218;-26
2023/12/09 11:31:37;;;;;;;0.00;0.00;;;11.50;79.60;;;;;;5067613;28;20647;-26
2023/12/09 11:34:16;;;;;;;0.00;0.00;;;11.50;79.60;;;;;;5062303;28;20836;-26
2023/12/09 11:36:45;;;;;;;0.00;0.00;;;11.50;79.60;;;;;;5064925;28;20223;-26
2023/12/09 11:39:18;;;;;;;0.00;0.00;;;11.50;79.60;;;;;;5060771;28;20200;-26
2023/12/09 11:41:49;;;;;;;0.00;0.00;;;11.50;79.60;;;;;;5057695;28;20261;-27
2023/12/09 11:44:19;;;;;;;0.00;0.00;;;11.50;79.60;;;;;;5055032;28;20208;-26
2023/12/09 11:46:46;;;;;;;0.00;0.00;;;11.50;79.60;;;;;;5055624;28;20246;-26
2023/12/09 11:49:14;;;;;;;0.00;0.00;;;11.50;79.60;;;;;;5063956;28;20223;-26
2023/12/09 11:51:42;;;;;;;0.00;0.00;;;11.50;79.60;;;;;;5057416;28;20287;-26
2023/12/09 11:54:14;;;;;;;0.00;0.00;;;11.50;79.70;;;;;;5051621;28;20200;-26
2023/12/09 11:56:42;;;;;;;0.00;0.00;;;11.50;79.70;;;;;;5059124;28;20871;-26
2023/12/09 11:59:09;;;;;;;0.00;0.00;;;11.50;79.70;;;;;;5052855;28;20203;-26
2023/12/09 12:01:36;;;;;;;0.00;0.00;;;11.60;79.80;;;;;;5051390;28;20227;-27
2023/12/09 12:04:06;;;;;;;0.00;0.00;;;11.60;79.80;;;;;;5060467;28;20245;-26
2023/12/09 12:06:38;;;;;;;0.00;0.00;;;11.60;79.80;;;;;;5057301;28;20254;-26
2023/12/09 12:09:11;;;;;;;0.00;0.00;;;11.60;79.70;;;;;;5060086;28;20215;-27
2023/12/09 12:11:38;;;;;;;0.00;0.00;;;11.60;79.70;;;;;;5053955;28;20192;-26
2023/12/09 12:14:09;;;;;;;0.00;0.00;;;11.60;79.70;;;;;;5057433;28;20196;-26
2023/12/09 12:16:36;;;;;;;0.00;0.00;;;11.60;79.70;;;;;;5048605;28;20258;-27
2023/12/09 12:19:04;;;;;;;0.00;0.00;;;11.60;79.70;;;;;;5059380;28;20203;-26
2023/12/09 12:21:31;;;;;;;0.00;0.00;;;11.60;79.70;;;;;;5054581;28;20262;-27
2023/12/09 12:24:04;;;;;;;0.00;0.00;;;11.60;79.60;;;;;;5054041;28;20227;-26
2023/12/09 12:26:31;;;;;;;0.00;0.00;;;11.60;79.60;;;;;;5049434;28;20949;-26
2023/12/09 12:28:58;;;;;;;0.00;0.00;;;11.60;79.60;;;;;;5049723;28;20222;-26
2023/12/09 12:31:27;;;;;;;0.00;0.00;;;11.60;79.50;;;;;;5052860;28;20204;-26
2023/12/09 12:33:54;;;;;;;0.00;0.00;;;11.60;79.50;;;;;;5059133;28;20314;-26
2023/12/09 12:36:27;;;;;;;0.00;0.00;;;11.60;79.50;;;;;;5057264;28;20204;-27
2023/12/09 12:38:55;;;;;;;0.00;0.00;;;11.60;79.50;;;;;;5052710;28;20717;-26
2023/12/09 12:41:22;;;;;;;0.00;0.00;;;11.50;79.50;;;;;;5061961;28;20757;-27
2023/12/09 12:43:52;;;;;;;0.00;0.00;;;11.50;79.40;;;;;;5064275;28;20440;-26
2023/12/09 12:46:20;;;;;;;0.00;0.00;;;11.50;79.60;;;;;;5060453;28;20211;-26
2023/12/09 12:48:47;;;;;;;0.00;0.00;;;11.50;79.30;;;;;;5049087;28;20255;-26
2023/12/09 12:51:14;;;;;;;0.00;0.00;;;11.50;79.30;;;;;;5055386;28;20708;-26
2023/12/09 12:53:41;;;;;;;0.00;0.00;;;11.50;79.40;;;;;;5059065;28;20839;-26
2023/12/09 12:56:12;;;;;;;0.00;0.00;;;11.50;79.30;;;;;;5054939;28;20261;-26
2023/12/09 12:58:42;;;;;;;0.00;0.00;;;11.40;79.40;;;;;;5044295;28;20216;-26
2023/12/09 13:01:11;;;;;;;0.00;0.00;;;11.40;79.50;;;;;;5059452;28;20283;-26